createdAt,value
2022-12-04T00:01:23.528Z,40.75
2022-12-04T00:04:24.640Z,61.63
2022-12-04T00:07:25.523Z,45.22
2022-12-04T00:10:06.798Z,41.00
2022-12-04T00:12:34.771Z,36.75
2022-12-04T00:17:52.666Z,41.47
2022-12-04T00:20:20.192Z,40.83
2022-12-04T00:22:47.167Z,43.97
2022-12-04T00:25:14.052Z,51.00
2022-12-04T00:27:41.134Z,52.15
2022-12-04T00:30:08.842Z,41.88
2022-12-04T00:32:36.018Z,40.78
2022-12-04T00:35:03.406Z,37.20
2022-12-04T00:37:30.468Z,38.45
2022-12-04T00:39:58.977Z,43.92
2022-12-04T00:42:26.505Z,39.85
2022-12-04T00:44:53.557Z,42.72
2022-12-04T00:47:20.986Z,39.60
2022-12-04T00:49:47.952Z,43.80
2022-12-04T00:52:14.905Z,40.00
2022-12-04T00:55:01.591Z,38.00
2022-12-04T00:58:02.571Z,38.03
2022-12-04T01:01:03.660Z,47.78
2022-12-04T01:03:54.579Z,42.35
2022-12-04T01:06:59.029Z,41.63
2022-12-04T01:09:42.101Z,39.67
2022-12-04T01:12:09.090Z,44.65
2022-12-04T01:14:36.072Z,41.38
2022-12-04T01:17:03.010Z,54.88
2022-12-04T01:19:30.006Z,44.28
2022-12-04T01:22:16.578Z,40.70
2022-12-04T01:25:17.588Z,35.75
2022-12-04T01:27:58.453Z,36.58
2022-12-04T01:30:25.474Z,36.08
2022-12-04T01:32:52.426Z,41.83
2022-12-04T01:35:19.345Z,49.80
2022-12-04T01:38:06.622Z,41.40
2022-12-04T01:40:47.095Z,34.42
2022-12-04T01:43:14.783Z,34.10
2022-12-04T01:46:03.678Z,37.67
2022-12-04T01:48:50.450Z,42.85
2022-12-04T01:51:39.552Z,31.67
2022-12-04T01:54:14.849Z,29.27
2022-12-04T01:57:07.640Z,30.85
2022-12-04T02:00:17.620Z,29.95
2022-12-04T02:03:18.573Z,26.40
2022-12-04T02:06:20.632Z,25.65
2022-12-04T02:09:04.306Z,28.80
2022-12-04T02:11:43.148Z,35.00
2022-12-04T02:14:44.636Z,25.90
2022-12-04T02:17:27.718Z,27.42
2022-12-04T02:19:54.884Z,27.38
2022-12-04T02:22:38.581Z,24.20
2022-12-04T02:25:23.889Z,28.15
2022-12-04T02:28:25.630Z,26.00
2022-12-04T02:30:57.675Z,24.67
2022-12-04T02:33:34.330Z,25.48
2022-12-04T02:36:23.632Z,25.85
2022-12-04T02:39:16.418Z,25.55
2022-12-04T02:41:57.472Z,26.35
2022-12-04T02:44:39.472Z,24.60
2022-12-04T02:47:12.477Z,23.58
2022-12-04T02:49:46.229Z,27.83
2022-12-04T02:52:18.102Z,27.73
2022-12-04T02:55:08.752Z,27.38
2022-12-04T02:58:02.613Z,30.17
2022-12-04T03:00:32.190Z,31.77
2022-12-04T03:03:30.640Z,29.58
2022-12-04T03:06:33.648Z,29.48
2022-12-04T03:09:32.928Z,30.40
2022-12-04T03:12:15.222Z,31.85
2022-12-04T03:14:49.895Z,28.73
2022-12-04T03:17:25.507Z,27.95
2022-12-04T03:19:59.351Z,26.30
2022-12-04T03:22:27.660Z,23.58
2022-12-04T03:25:16.680Z,23.67
2022-12-04T03:28:05.236Z,23.27
2022-12-04T03:30:40.005Z,23.08
2022-12-04T03:33:23.488Z,24.85
2022-12-04T03:36:02.543Z,26.60
2022-12-04T03:38:36.047Z,27.30
2022-12-04T03:41:05.608Z,26.40
2022-12-04T03:43:35.675Z,27.60
2022-12-04T03:46:19.965Z,26.30
2022-12-04T03:51:40.232Z,26.42
2022-12-04T03:54:17.299Z,23.80
2022-12-04T03:57:09.715Z,25.40
2022-12-04T03:59:58.212Z,23.60
2022-12-04T04:02:54.506Z,22.40
2022-12-04T04:06:00.718Z,19.00
2022-12-04T04:08:46.142Z,19.33
2022-12-04T04:11:23.967Z,20.48
2022-12-04T04:14:16.359Z,17.13
2022-12-04T04:17:16.316Z,23.55
2022-12-04T04:20:10.671Z,14.23
2022-12-04T04:23:07.947Z,24.98
2022-12-04T04:29:56.558Z,11.27
2022-12-04T04:32:40.636Z,10.02
2022-12-04T04:35:17.010Z,8.77
2022-12-04T04:38:18.758Z,9.93
2022-12-04T04:41:29.061Z,10.60
2022-12-04T04:44:09.162Z,9.18
2022-12-04T04:50:07.589Z,9.32
2022-12-04T04:53:17.985Z,10.27
2022-12-04T04:56:35.759Z,8.43
2022-12-04T04:59:19.444Z,8.10
2022-12-04T05:01:50.139Z,8.63
2022-12-04T05:04:43.933Z,10.02
2022-12-04T05:07:37.976Z,8.93
2022-12-04T05:10:18.799Z,9.07
2022-12-04T05:12:48.603Z,9.68
2022-12-04T05:15:16.153Z,8.38
2022-12-04T05:17:49.101Z,9.85
2022-12-04T05:20:30.438Z,8.02
2022-12-04T05:23:05.328Z,8.38
2022-12-04T05:25:37.325Z,10.35
2022-12-04T05:28:17.123Z,8.68
2022-12-04T05:31:04.875Z,8.77
2022-12-04T05:33:34.274Z,7.35
2022-12-04T05:36:10.825Z,7.65
2022-12-04T05:38:41.590Z,7.25
2022-12-04T05:41:30.351Z,6.75
2022-12-04T05:44:31.240Z,5.30
2022-12-04T05:47:12.525Z,4.60
2022-12-04T05:49:39.910Z,5.72
2022-12-04T05:52:08.518Z,4.75
2022-12-04T05:54:36.635Z,7.10
2022-12-04T05:57:25.520Z,5.03
2022-12-04T06:00:18.652Z,4.47
2022-12-04T06:03:12.919Z,5.63
2022-12-04T06:06:19.324Z,6.88
2022-12-04T06:09:06.648Z,8.02
2022-12-04T06:11:39.005Z,6.05
2022-12-04T06:14:09.389Z,6.40
2022-12-04T06:16:40.013Z,5.28
2022-12-04T06:19:10.688Z,5.93
2022-12-04T06:21:40.073Z,4.78
2022-12-04T06:24:08.535Z,5.72
2022-12-04T06:26:35.835Z,6.22
2022-12-04T06:29:03.090Z,5.18
2022-12-04T06:31:50.991Z,7.30
2022-12-04T06:34:32.763Z,5.93
2022-12-04T06:36:59.960Z,6.07
2022-12-04T06:39:27.330Z,5.78
2022-12-04T06:41:57.011Z,5.75
2022-12-04T06:44:35.044Z,6.68
2022-12-04T06:47:02.173Z,6.07
2022-12-04T06:49:29.434Z,6.90
2022-12-04T06:51:57.195Z,6.15
2022-12-04T06:54:24.851Z,6.15
2022-12-04T07:00:33.872Z,8.73
2022-12-04T07:03:35.796Z,8.40
2022-12-04T07:06:43.857Z,8.73
2022-12-04T07:09:25.020Z,9.25
2022-12-04T07:12:10.599Z,7.15
2022-12-04T07:14:37.927Z,7.68
2022-12-04T07:17:05.542Z,10.52
2022-12-04T07:19:32.524Z,7.93
2022-12-04T07:22:21.183Z,8.35
2022-12-04T07:25:14.596Z,9.00
2022-12-04T07:27:41.631Z,7.50
2022-12-04T07:30:15.348Z,7.25
2022-12-04T07:35:39.965Z,8.68
2022-12-04T07:38:07.196Z,8.77
2022-12-04T07:40:55.043Z,10.57
2022-12-04T07:43:35.481Z,9.73
2022-12-04T07:46:08.872Z,7.82
2022-12-04T07:48:35.970Z,9.45
2022-12-04T07:51:12.405Z,8.35
2022-12-04T07:53:40.579Z,9.80
2022-12-04T07:56:31.076Z,8.82
2022-12-04T07:59:31.790Z,8.40
2022-12-04T08:02:13.561Z,9.82
2022-12-04T08:05:00.964Z,8.77
2022-12-04T08:08:01.963Z,7.85
2022-12-04T08:10:42.570Z,12.85
2022-12-04T08:13:09.639Z,8.07
2022-12-04T08:15:36.786Z,10.15
2022-12-04T08:18:04.399Z,12.73
2022-12-04T08:20:31.421Z,9.48
2022-12-04T08:22:58.370Z,8.90
2022-12-04T08:25:45.899Z,10.07
2022-12-04T08:28:26.765Z,8.50
2022-12-04T08:30:54.266Z,8.38
2022-12-04T08:33:21.663Z,7.90
2022-12-04T08:35:49.872Z,8.05
2022-12-04T08:38:28.059Z,7.88
2022-12-04T08:40:55.334Z,7.72
2022-12-04T08:43:22.271Z,6.60
2022-12-04T08:46:04.970Z,6.65
2022-12-04T08:48:32.636Z,15.57
2022-12-04T08:51:00.509Z,5.90
2022-12-04T08:53:27.628Z,6.35
2022-12-04T08:55:54.664Z,6.20
2022-12-04T08:58:22.770Z,10.50
2022-12-04T09:01:09.922Z,5.75
2022-12-04T09:04:10.988Z,4.28
2022-12-04T09:07:12.116Z,4.13
2022-12-04T09:09:41.249Z,4.13
2022-12-04T09:12:12.015Z,31.00
2022-12-04T09:15:34.858Z,4.95
2022-12-04T09:17:57.047Z,2.88
2022-12-04T09:20:24.416Z,5.53
2022-12-04T09:23:03.966Z,3.67
2022-12-04T09:25:34.987Z,2.75
2022-12-04T09:28:02.010Z,2.95
2022-12-04T09:30:29.088Z,3.53
2022-12-04T09:33:15.856Z,3.53
2022-12-04T09:35:59.486Z,2.70
2022-12-04T09:38:46.850Z,2.92
2022-12-04T09:41:55.665Z,3.53
2022-12-04T09:44:45.835Z,4.45
2022-12-04T09:47:33.543Z,2.33
2022-12-04T09:50:10.386Z,3.38
2022-12-04T09:53:12.053Z,4.50
2022-12-04T09:56:17.889Z,3.10
2022-12-04T09:59:14.850Z,3.13
2022-12-04T10:01:49.267Z,3.15
2022-12-04T10:04:38.331Z,2.85
2022-12-04T10:07:53.315Z,3.63
2022-12-04T10:11:21.870Z,2.85
2022-12-04T10:14:40.350Z,1.90
2022-12-04T10:17:17.018Z,3.28
2022-12-04T10:20:04.620Z,4.05
2022-12-04T10:22:50.661Z,3.33
2022-12-04T10:25:39.895Z,3.55
2022-12-04T10:28:32.884Z,2.55
2022-12-04T10:31:02.530Z,3.28
2022-12-04T10:33:38.569Z,2.67
2022-12-04T10:36:07.141Z,2.70
2022-12-04T10:39:07.412Z,3.45
2022-12-04T10:42:02.966Z,3.83
2022-12-04T10:44:43.645Z,3.13
2022-12-04T10:47:13.646Z,2.97
2022-12-04T10:49:41.018Z,4.88
2022-12-04T10:52:12.861Z,8.90
2022-12-04T10:54:43.206Z,2.67
2022-12-04T10:57:14.015Z,2.70
2022-12-04T10:59:54.124Z,2.75
2022-12-04T11:02:43.971Z,3.63
2022-12-04T11:06:13.894Z,2.70
2022-12-04T11:09:15.965Z,2.17
2022-12-04T11:12:34.919Z,2.22
2022-12-04T11:15:16.188Z,3.83
2022-12-04T11:17:43.305Z,1.83
2022-12-04T11:20:28.413Z,2.53
2022-12-04T11:22:57.753Z,2.60
2022-12-04T11:25:34.107Z,5.30
2022-12-04T11:28:03.649Z,6.13
2022-12-04T11:30:39.669Z,3.35
2022-12-04T11:33:18.176Z,3.85
2022-12-04T11:35:52.539Z,2.65
2022-12-04T11:38:20.907Z,2.80
2022-12-04T11:40:52.121Z,3.50
2022-12-04T11:43:19.978Z,2.65
2022-12-04T11:45:59.208Z,2.15
2022-12-04T11:48:27.173Z,1.98
2022-12-04T11:51:31.925Z,2.92
2022-12-04T11:54:01.764Z,2.30
2022-12-04T11:57:08.887Z,2.83
2022-12-04T12:00:02.726Z,2.20
2022-12-04T12:02:59.025Z,3.65
2022-12-04T12:06:26.910Z,5.28
2022-12-04T12:10:01.919Z,3.25
2022-12-04T12:13:19.825Z,3.67
2022-12-04T12:16:05.451Z,3.25
2022-12-04T12:19:09.705Z,3.97
2022-12-04T12:22:05.264Z,4.03
2022-12-04T12:24:53.600Z,4.40
2022-12-04T12:28:01.021Z,4.60
2022-12-04T12:30:36.074Z,5.25
2022-12-04T12:33:12.121Z,8.65
2022-12-04T12:35:51.828Z,4.13
2022-12-04T12:38:25.281Z,5.97
2022-12-04T12:41:13.160Z,6.25
2022-12-04T12:44:19.424Z,4.90
2022-12-04T12:47:05.823Z,4.60
2022-12-04T12:49:36.928Z,5.05
2022-12-04T12:52:25.014Z,4.22
2022-12-04T12:54:58.430Z,3.63
2022-12-04T12:57:31.183Z,3.33
2022-12-04T13:00:26.949Z,4.63
2022-12-04T13:03:53.957Z,4.78
2022-12-04T13:06:56.962Z,8.70
2022-12-04T13:09:41.651Z,5.03
2022-12-04T13:12:15.675Z,4.72
2022-12-04T13:17:20.272Z,5.15
2022-12-04T13:19:54.069Z,5.82
2022-12-04T13:23:01.353Z,7.03
2022-12-04T13:25:55.303Z,6.15
2022-12-04T13:29:10.998Z,5.63
2022-12-04T13:32:11.376Z,6.53
2022-12-04T13:34:57.472Z,8.40
2022-12-04T13:37:39.553Z,6.05
2022-12-04T13:40:18.723Z,10.88
2022-12-04T13:43:06.746Z,7.72
2022-12-04T13:46:11.480Z,6.57
2022-12-04T13:49:42.994Z,7.55
2022-12-04T13:52:36.470Z,7.03
2022-12-04T13:55:04.333Z,12.10
2022-12-04T13:57:54.073Z,7.35
2022-12-04T14:00:58.088Z,8.48
2022-12-04T14:04:05.997Z,7.15
2022-12-04T14:06:51.962Z,7.18
2022-12-04T14:09:27.174Z,10.35
2022-12-04T14:12:04.081Z,8.75
2022-12-04T14:14:54.056Z,7.97
2022-12-04T14:17:55.580Z,7.18
2022-12-04T14:20:57.090Z,19.92
2022-12-04T14:23:59.364Z,21.48
2022-12-04T14:27:10.700Z,37.50
2022-12-04T14:29:49.992Z,27.38
2022-12-04T14:32:46.990Z,15.00
2022-12-04T14:35:48.051Z,13.55
2022-12-04T14:38:30.923Z,57.50
2022-12-04T14:40:59.763Z,27.20
2022-12-04T14:43:56.002Z,26.00
2022-12-04T14:46:48.658Z,37.38
2022-12-04T14:50:20.449Z,14.07
2022-12-04T14:53:25.575Z,8.73
2022-12-04T14:56:34.005Z,7.93
2022-12-04T14:59:37.623Z,8.55
2022-12-04T15:02:55.102Z,10.50
2022-12-04T15:05:50.007Z,7.93
2022-12-04T15:08:21.197Z,7.97
2022-12-04T15:11:09.531Z,8.13
2022-12-04T15:13:39.002Z,7.15
2022-12-04T15:16:35.025Z,9.27
2022-12-04T15:19:36.489Z,8.45
2022-12-04T15:22:35.193Z,9.13
2022-12-04T15:25:02.629Z,9.10
2022-12-04T15:27:32.757Z,11.48
2022-12-04T15:30:03.345Z,16.30
2022-12-04T15:32:52.216Z,14.52
2022-12-04T15:35:56.058Z,26.27
2022-12-04T15:38:36.960Z,9.07
2022-12-04T15:41:03.994Z,9.38
2022-12-04T15:43:38.817Z,10.00
2022-12-04T15:46:38.174Z,9.15
2022-12-04T15:49:41.086Z,10.18
2022-12-04T15:52:34.476Z,11.25
2022-12-04T15:55:05.923Z,12.63
2022-12-04T15:57:54.340Z,16.38
2022-12-04T16:00:38.094Z,24.42
2022-12-04T16:03:56.991Z,22.20
2022-12-04T16:06:48.684Z,19.85
2022-12-04T16:09:25.901Z,20.60
2022-12-04T16:12:16.890Z,15.13
2022-12-04T16:14:43.821Z,16.50
2022-12-04T16:17:13.978Z,25.63
2022-12-04T16:19:43.651Z,40.33
2022-12-04T16:22:20.414Z,15.57
2022-12-04T16:24:48.493Z,16.17
2022-12-04T16:27:19.835Z,16.73
2022-12-04T16:30:07.037Z,22.95
2022-12-04T16:33:08.078Z,31.05
2022-12-04T16:35:49.255Z,32.78
2022-12-04T16:38:17.200Z,27.35
2022-12-04T16:40:46.158Z,18.83
2022-12-04T16:43:15.705Z,18.67
2022-12-04T16:45:51.361Z,17.73
2022-12-04T16:48:18.449Z,14.68
2022-12-04T16:51:05.081Z,16.13
2022-12-04T16:54:07.057Z,16.55
2022-12-04T16:57:08.048Z,25.20
2022-12-04T17:00:09.138Z,21.33
2022-12-04T17:03:11.253Z,18.85
2022-12-04T17:06:15.044Z,20.23
2022-12-04T17:08:41.982Z,22.00
2022-12-04T17:11:14.071Z,20.67
2022-12-04T17:13:42.270Z,23.23
2022-12-04T17:16:30.667Z,23.98
2022-12-04T17:19:11.441Z,32.80
2022-12-04T17:21:40.350Z,35.42
2022-12-04T17:24:08.489Z,32.72
2022-12-04T17:26:36.225Z,30.77
2022-12-04T17:29:03.223Z,30.20
2022-12-04T17:31:30.265Z,28.75
2022-12-04T17:33:57.768Z,27.85
2022-12-04T17:36:45.094Z,24.88
2022-12-04T17:39:46.103Z,25.00
2022-12-04T17:42:27.170Z,21.15
2022-12-04T17:45:14.199Z,21.58
2022-12-04T17:48:15.158Z,26.33
2022-12-04T17:51:14.586Z,22.88
2022-12-04T17:53:42.844Z,27.60
2022-12-04T17:56:12.838Z,29.65
2022-12-04T17:58:40.518Z,30.77
2022-12-04T18:01:10.832Z,29.60
2022-12-04T18:04:02.115Z,25.05
2022-12-04T18:07:03.157Z,26.23
2022-12-04T18:09:44.847Z,26.15
2022-12-04T18:12:12.735Z,25.70
2022-12-04T18:14:40.126Z,30.63
2022-12-04T18:17:07.023Z,23.17
2022-12-04T18:19:35.630Z,24.23
2022-12-04T18:22:02.566Z,22.92
2022-12-04T18:24:30.426Z,21.58
2022-12-04T18:26:57.334Z,20.45
2022-12-04T18:29:27.023Z,24.48
2022-12-04T18:31:54.634Z,23.98
2022-12-04T18:34:22.393Z,22.20
2022-12-04T18:36:49.787Z,23.95
2022-12-04T18:39:27.113Z,25.25
2022-12-04T18:41:58.121Z,21.98
2022-12-04T18:44:26.178Z,24.70
2022-12-04T18:47:14.198Z,23.05
2022-12-04T18:50:15.117Z,23.55
2022-12-04T18:53:17.129Z,22.52
2022-12-04T18:56:02.574Z,24.33
2022-12-04T18:58:29.473Z,24.75
2022-12-04T19:00:57.408Z,27.75
2022-12-04T19:03:46.258Z,24.17
2022-12-04T19:06:41.018Z,28.67
2022-12-04T19:09:14.606Z,26.73
2022-12-04T19:11:43.522Z,28.90
2022-12-04T19:14:22.715Z,27.95
2022-12-04T19:16:51.944Z,33.10
2022-12-04T19:19:20.746Z,38.33
2022-12-04T19:21:48.995Z,36.10
2022-12-04T19:24:17.220Z,37.08
2022-12-04T19:26:45.591Z,36.35
2022-12-04T19:29:14.401Z,32.15
2022-12-04T19:32:01.173Z,30.90
2022-12-04T19:34:42.318Z,30.70
2022-12-04T19:37:31.014Z,26.67
2022-12-04T19:40:33.106Z,25.85
2022-12-04T19:43:15.047Z,29.00
2022-12-04T19:45:50.025Z,32.75
2022-12-04T19:48:17.144Z,29.45
2022-12-04T19:50:44.259Z,32.85
2022-12-04T19:53:11.542Z,32.63
2022-12-04T19:55:38.655Z,30.02
2022-12-04T19:58:26.563Z,33.80
2022-12-04T20:01:33.262Z,34.75
2022-12-04T20:04:34.193Z,36.97
2022-12-04T20:07:35.229Z,37.30
2022-12-04T20:10:08.243Z,30.30
2022-12-04T20:12:37.016Z,36.40
2022-12-04T20:15:05.123Z,36.25
2022-12-04T20:17:32.210Z,30.98
2022-12-04T20:20:00.926Z,30.15
2022-12-04T20:22:31.760Z,31.02
2022-12-04T20:25:12.685Z,34.95
2022-12-04T20:27:53.833Z,36.22
2022-12-04T20:30:42.274Z,40.85
2022-12-04T20:33:36.448Z,48.30
2022-12-04T20:36:03.672Z,47.28
2022-12-04T20:38:30.723Z,40.42
2022-12-04T20:41:07.076Z,35.72
2022-12-04T20:43:55.238Z,37.83
2022-12-04T20:46:39.269Z,37.65
2022-12-04T20:49:13.453Z,37.15
2022-12-04T20:51:45.825Z,48.90
2022-12-04T20:54:16.739Z,37.10
2022-12-04T20:56:45.571Z,32.10
2022-12-04T20:59:16.535Z,37.75
2022-12-04T21:01:44.004Z,35.72
2022-12-04T21:04:33.330Z,36.83
2022-12-04T21:07:37.124Z,34.65
2022-12-04T21:10:39.189Z,41.55
2022-12-04T21:13:39.147Z,39.13
2022-12-04T21:16:28.039Z,40.75
2022-12-04T21:19:11.873Z,41.33
2022-12-04T21:21:40.852Z,40.75
2022-12-04T21:24:10.636Z,44.50
2022-12-04T21:26:39.350Z,42.22
2022-12-04T21:29:09.366Z,41.50
2022-12-04T21:31:56.235Z,39.90
2022-12-04T21:34:36.776Z,41.47
2022-12-04T21:37:03.894Z,37.13
2022-12-04T21:39:31.119Z,40.78
2022-12-04T21:42:16.461Z,38.03
2022-12-04T21:44:43.513Z,36.65
2022-12-04T21:47:30.220Z,40.58
2022-12-04T21:50:31.259Z,37.95
2022-12-04T21:53:11.798Z,40.90
2022-12-04T21:55:38.675Z,41.08
2022-12-04T21:58:25.264Z,41.78
2022-12-04T22:01:11.782Z,46.38
2022-12-04T22:03:59.346Z,41.45
2022-12-04T22:06:40.430Z,38.00
2022-12-04T22:09:09.871Z,36.42
2022-12-04T22:11:38.239Z,43.25
2022-12-04T22:14:05.338Z,41.90
2022-12-04T22:16:36.904Z,40.72
2022-12-04T22:19:09.049Z,41.40
2022-12-04T22:21:36.540Z,45.33
2022-12-04T22:24:06.508Z,37.15
2022-12-04T22:26:34.179Z,45.80
2022-12-04T22:29:03.135Z,45.45
2022-12-04T22:31:32.822Z,40.72
2022-12-04T22:34:01.572Z,44.80
2022-12-04T22:36:32.434Z,43.50
2022-12-04T22:39:15.719Z,41.00
2022-12-04T22:42:03.358Z,47.17
2022-12-04T22:45:06.016Z,46.38
2022-12-04T22:47:48.313Z,47.42
2022-12-04T22:50:36.969Z,43.00
2022-12-04T22:53:17.741Z,46.95
2022-12-04T22:55:45.240Z,50.33
2022-12-04T22:58:12.785Z,46.40
2022-12-04T23:01:03.650Z,52.75
2022-12-04T23:04:10.438Z,47.92
2022-12-04T23:06:51.103Z,47.55
2022-12-04T23:09:19.856Z,49.03
2022-12-04T23:11:52.943Z,51.95
2022-12-04T23:14:43.002Z,46.88
2022-12-04T23:17:35.027Z,56.83
2022-12-04T23:20:03.268Z,51.42
2022-12-04T23:22:30.665Z,42.55
2022-12-04T23:24:58.132Z,53.35
2022-12-04T23:27:25.368Z,48.22
2022-12-04T23:29:53.721Z,58.97
2022-12-04T23:32:41.566Z,50.22
2022-12-04T23:35:22.761Z,53.65
2022-12-04T23:38:10.801Z,49.03
2022-12-04T23:40:51.653Z,57.95
2022-12-04T23:43:38.319Z,51.42
2022-12-04T23:46:43.449Z,57.90
2022-12-04T23:52:25.003Z,55.35
2022-12-04T23:54:53.003Z,54.28
2022-12-04T23:57:20.622Z,50.88
2022-12-04T23:59:48.636Z,61.50
